Easterwood Field
KCLL : now visible

Airfield :











YOU CAN JOIN US ON...

 
LOGIN :

Register | Disclaimer

   EN    FR    IT 

 









Legend :    VFR   Marginal VFR   IFR   Intensive IFR   Very Intensive IFR
Visi :
Ceiling :
>= 8 km
>= 3000ft
5 to 8 km
1000 to 3000 ft
1500m to 5 km
500 to 1000 ft
800 to 1500m
200 to 500 ft
< 800m
< 200 ft
Symbols :   Thunderstorms  Fog  Heavy snow  Heavy precipitations  Wind > 20 kt







- Airport Elevation : 320 ft
- IATA code : CLL


KCLL - Easterwood Field

CURRENT METAR :
  • 181553Z 26006KT 10SM FEW009 SCT014 BKN035 19/17 A2975 RMK AO2 SLP070 T01890167

EXPIRED METARs :
  • 181453Z 27008KT 10SM BKN008 18/17 A2975 RMK AO2 CIG 007V012 SLP069 60013 T01780167 53012
  • 181430Z VRB03KT 10SM BKN008 17/17 A2973 RMK AO2 CIG 005V009 T01720167
  • 181353Z 12009KT 10SM SCT007 17/16 A2972 RMK AO2 RAE31 SLP061 P0007 T01670161
  • 181326Z 11011G18KT 10SM -RA SCT007 BKN070 OVC110 17/16 A2972 RMK AO2 P0007 T01670161

TAF KCLL
Valid from the 18 at 15:00 until the 19 at 12:00 UTC


181450Z 1815/1912 VRB03KT P6SM BKN008
FM181600 33015KT P6SM SCT060
FM181800 32015G22KT P6SM VCSH SCT060 SCT250
FM182000 34020G30KT P6SM BKN050
FM190300 33006KT P6SM SCT120
KZHU FIR / North America



MET'MAP, your aeronautical weather chart ! - Copyright ORBIFLY December 2007 - Disclaimer

ORBIFLY MET'MAP TEAM :

Programming & Development : Alexandra Zaïnal
Concept & Development : Baudouin d'Aumeries
Co-Development & Prog : Marc-Olivier Méhu
Technical & hardware support : Manuel Goepfert

Contact : metmap@orbifly.com




SOURCES & CREDITS :

   NOAA       Earth
Advisory